createdAt,value
2023-02-11T00:01:55.377Z,13.60
2023-02-11T00:05:03.459Z,21.73
2023-02-11T00:08:08.923Z,16.63
2023-02-11T00:11:17.728Z,21.30
2023-02-11T00:14:23.580Z,19.07
2023-02-11T00:17:29.740Z,15.07
2023-02-11T00:20:36.659Z,18.60
2023-02-11T00:23:42.860Z,18.23
2023-02-11T00:26:48.720Z,21.67
2023-02-11T00:29:55.706Z,20.10
2023-02-11T00:33:01.379Z,17.77
2023-02-11T00:36:12.059Z,17.07
2023-02-11T00:39:17.879Z,18.50
2023-02-11T00:42:24.613Z,25.83
2023-02-11T00:45:30.777Z,23.73
2023-02-11T00:48:38.089Z,19.97
2023-02-11T00:51:45.281Z,23.83
2023-02-11T00:54:51.639Z,18.47
2023-02-11T00:57:58.871Z,13.67
2023-02-11T01:01:06.259Z,19.47
2023-02-11T01:04:12.022Z,22.70
2023-02-11T01:07:19.783Z,26.00
2023-02-11T01:10:25.629Z,16.77
2023-02-11T01:13:32.272Z,22.47
2023-02-11T01:16:38.082Z,24.10
2023-02-11T01:19:44.282Z,20.00
2023-02-11T01:22:51.198Z,28.30
2023-02-11T01:25:57.418Z,30.17
2023-02-11T01:29:03.056Z,25.03
2023-02-11T01:32:09.209Z,18.33
2023-02-11T01:35:15.183Z,22.77
2023-02-11T01:38:26.022Z,23.93
2023-02-11T01:41:31.619Z,25.43
2023-02-11T01:44:40.463Z,22.30
2023-02-11T01:47:46.369Z,23.10
2023-02-11T01:50:58.416Z,22.00
2023-02-11T01:54:26.061Z,19.33
2023-02-11T01:57:35.124Z,17.53
2023-02-11T02:00:42.667Z,19.77
2023-02-11T02:03:53.674Z,33.03
2023-02-11T02:07:04.688Z,18.67
2023-02-11T02:10:18.641Z,18.40
2023-02-11T02:13:24.899Z,28.93
2023-02-11T02:16:35.056Z,22.20
2023-02-11T02:20:12.371Z,24.03
2023-02-11T02:23:29.842Z,18.20
2023-02-11T02:26:55.158Z,17.73
2023-02-11T02:30:41.242Z,17.90
2023-02-11T02:33:54.137Z,15.80
2023-02-11T02:37:05.976Z,25.63
2023-02-11T02:40:16.368Z,22.00
2023-02-11T02:43:23.941Z,22.33
2023-02-11T02:46:32.236Z,21.33
2023-02-11T02:49:39.642Z,18.33
2023-02-11T02:52:57.925Z,21.20
2023-02-11T02:56:12.253Z,22.40
2023-02-11T02:59:28.714Z,19.77
2023-02-11T03:02:40.893Z,24.70
2023-02-11T03:05:54.945Z,25.10
2023-02-11T03:09:09.702Z,21.03
2023-02-11T03:12:18.395Z,21.07
2023-02-11T03:15:27.084Z,20.37
2023-02-11T03:18:33.575Z,18.47
2023-02-11T03:21:43.363Z,20.80
2023-02-11T03:24:49.712Z,21.87
2023-02-11T03:28:04.514Z,16.63
2023-02-11T03:31:15.886Z,27.73
2023-02-11T03:34:29.694Z,20.17
2023-02-11T03:37:40.880Z,17.67
2023-02-11T03:40:47.612Z,21.80
2023-02-11T03:43:57.018Z,20.63
2023-02-11T03:47:06.253Z,20.70
2023-02-11T03:50:15.659Z,18.50
2023-02-11T03:53:24.155Z,22.67
2023-02-11T03:56:34.291Z,19.23
2023-02-11T03:59:52.644Z,17.73
2023-02-11T04:02:58.268Z,21.47
2023-02-11T04:06:04.562Z,23.27
2023-02-11T04:09:12.166Z,21.37
2023-02-11T04:12:18.243Z,20.90
2023-02-11T04:15:24.025Z,19.87
2023-02-11T04:18:30.105Z,29.83
2023-02-11T04:21:35.638Z,18.67
2023-02-11T04:24:44.191Z,20.23
2023-02-11T04:27:49.902Z,26.30
2023-02-11T04:30:55.850Z,26.97
2023-02-11T04:34:01.676Z,31.30
2023-02-11T04:37:07.463Z,22.40
2023-02-11T04:40:14.721Z,22.43
2023-02-11T04:43:20.721Z,25.63
2023-02-11T04:46:26.343Z,26.50
2023-02-11T04:49:32.402Z,26.03
2023-02-11T04:52:38.412Z,18.33
2023-02-11T04:55:46.127Z,28.23
2023-02-11T04:58:51.866Z,28.60
2023-02-11T05:01:57.926Z,26.57
2023-02-11T05:05:03.568Z,28.03
2023-02-11T05:08:10.266Z,20.80
2023-02-11T05:11:19.520Z,24.30
2023-02-11T05:14:25.608Z,26.43
2023-02-11T05:17:31.479Z,28.40
2023-02-11T05:20:39.632Z,28.73
2023-02-11T05:23:45.725Z,26.87
2023-02-11T05:26:53.220Z,29.17
2023-02-11T05:29:58.709Z,28.20
2023-02-11T05:33:04.665Z,26.30
2023-02-11T05:36:12.738Z,33.87
2023-02-11T05:39:18.333Z,27.80
2023-02-11T05:42:25.646Z,30.80
2023-02-11T05:45:31.724Z,28.03
2023-02-11T05:48:37.283Z,34.13
2023-02-11T05:51:43.567Z,29.80
2023-02-11T05:54:49.424Z,30.37
2023-02-11T05:57:57.166Z,27.70
2023-02-11T06:01:02.752Z,33.43
2023-02-11T06:04:08.622Z,27.97
2023-02-11T06:07:14.244Z,28.73
2023-02-11T06:10:21.475Z,34.13
2023-02-11T06:13:28.294Z,35.93
2023-02-11T06:16:34.075Z,31.23
2023-02-11T06:19:39.991Z,31.23
2023-02-11T06:22:46.560Z,27.67
2023-02-11T06:25:53.086Z,28.93
2023-02-11T06:29:03.030Z,31.90
2023-02-11T06:32:23.306Z,32.07
2023-02-11T06:35:35.734Z,38.90
2023-02-11T06:38:41.447Z,38.23
2023-02-11T06:41:47.281Z,33.23
2023-02-11T06:44:54.931Z,33.37
2023-02-11T06:48:00.843Z,41.27
2023-02-11T06:51:09.479Z,33.07
2023-02-11T06:54:15.583Z,31.60
2023-02-11T06:57:21.480Z,34.03
2023-02-11T07:00:29.942Z,36.43
2023-02-11T07:03:36.368Z,35.00
2023-02-11T07:06:43.050Z,36.93
2023-02-11T07:09:48.830Z,38.50
2023-02-11T07:12:57.037Z,51.80
2023-02-11T07:16:07.621Z,49.13
2023-02-11T07:19:14.248Z,43.93
2023-02-11T07:22:19.924Z,47.73
2023-02-11T07:25:25.803Z,48.53
2023-02-11T07:28:32.432Z,51.40
2023-02-11T07:31:40.284Z,52.97
2023-02-11T07:34:48.117Z,52.60
2023-02-11T07:37:54.139Z,45.70
2023-02-11T07:41:01.652Z,53.73
2023-02-11T07:44:07.488Z,58.17
2023-02-11T07:47:14.448Z,50.07
2023-02-11T07:50:20.298Z,44.00
2023-02-11T07:53:25.938Z,50.07
2023-02-11T07:56:32.022Z,46.53
2023-02-11T07:59:37.766Z,54.30
2023-02-11T08:02:45.555Z,54.13
2023-02-11T08:05:51.612Z,51.93
2023-02-11T08:08:58.333Z,45.57
2023-02-11T08:12:04.482Z,59.77
2023-02-11T08:15:11.303Z,51.87
2023-02-11T08:18:18.166Z,56.43
2023-02-11T08:21:24.261Z,53.37
2023-02-11T08:24:29.967Z,51.97
2023-02-11T08:27:36.572Z,52.63
2023-02-11T08:30:42.239Z,57.60
2023-02-11T08:33:50.055Z,61.30
2023-02-11T08:36:55.749Z,56.43
2023-02-11T08:40:01.738Z,57.57
2023-02-11T08:43:08.199Z,59.90
2023-02-11T08:46:17.025Z,56.60
2023-02-11T08:49:24.518Z,56.87
2023-02-11T08:52:30.324Z,56.87
2023-02-11T08:55:36.244Z,60.53
2023-02-11T08:58:42.580Z,59.77
2023-02-11T09:01:48.325Z,62.43
2023-02-11T09:04:55.748Z,62.00
2023-02-11T09:08:01.294Z,68.03
2023-02-11T09:11:07.633Z,65.73
2023-02-11T09:14:19.057Z,62.50
2023-02-11T09:17:25.050Z,60.53
2023-02-11T09:20:32.457Z,67.33
2023-02-11T09:23:38.547Z,59.57
2023-02-11T09:26:44.499Z,63.17
2023-02-11T09:29:50.472Z,63.07
2023-02-11T09:32:55.718Z,64.70
2023-02-11T09:36:04.035Z,63.70
2023-02-11T09:39:13.873Z,58.53
2023-02-11T09:42:42.584Z,57.63
2023-02-11T09:45:48.781Z,61.40
2023-02-11T09:48:57.326Z,64.93
2023-02-11T09:52:09.280Z,64.57
2023-02-11T09:55:21.987Z,59.67
2023-02-11T09:58:30.720Z,56.00
2023-02-11T10:01:42.473Z,54.80
2023-02-11T10:05:16.437Z,56.40
2023-02-11T10:08:31.641Z,53.47
2023-02-11T10:11:47.312Z,52.90
2023-02-11T10:15:12.984Z,55.17
2023-02-11T10:18:41.504Z,54.13
2023-02-11T10:21:57.070Z,54.30
2023-02-11T10:25:18.183Z,58.53
2023-02-11T10:28:29.337Z,53.47
2023-02-11T10:31:40.931Z,53.10
2023-02-11T10:34:47.275Z,60.27
2023-02-11T10:37:53.283Z,55.70
2023-02-11T10:41:01.325Z,51.67
2023-02-11T10:44:08.334Z,57.60
2023-02-11T10:47:18.779Z,58.07
2023-02-11T10:50:27.111Z,51.57
2023-02-11T10:53:34.007Z,57.83
2023-02-11T10:56:45.843Z,62.20
2023-02-11T11:00:00.564Z,52.43
2023-02-11T11:03:15.976Z,54.83
2023-02-11T11:06:32.194Z,57.90
2023-02-11T11:09:48.124Z,52.10
2023-02-11T11:12:56.537Z,54.10
2023-02-11T11:16:27.567Z,52.07
2023-02-11T11:19:34.156Z,54.03
2023-02-11T11:22:40.025Z,56.10
2023-02-11T11:25:59.594Z,51.23
2023-02-11T11:29:11.909Z,50.70
2023-02-11T11:32:21.922Z,52.17
2023-02-11T11:35:29.278Z,55.87
2023-02-11T11:38:38.378Z,53.53
2023-02-11T11:41:51.952Z,56.30
2023-02-11T11:45:00.752Z,54.27
2023-02-11T11:48:13.974Z,53.50
2023-02-11T11:51:20.429Z,48.20
2023-02-11T11:54:28.832Z,50.53
2023-02-11T11:57:39.190Z,49.37
2023-02-11T12:00:54.743Z,46.93
2023-02-11T12:04:22.410Z,48.00
2023-02-11T12:07:40.315Z,45.53
2023-02-11T12:10:57.951Z,46.47
2023-02-11T12:14:16.116Z,47.27
2023-02-11T12:17:43.720Z,51.00
2023-02-11T12:21:07.422Z,49.43
2023-02-11T12:24:30.964Z,44.53
2023-02-11T12:27:49.671Z,46.43
2023-02-11T12:31:15.470Z,48.07
2023-02-11T12:34:52.977Z,46.87
2023-02-11T12:38:18.751Z,45.47
2023-02-11T12:42:03.574Z,46.90
2023-02-11T12:45:22.958Z,46.07
2023-02-11T12:48:41.796Z,48.63
2023-02-11T12:52:04.583Z,45.63
2023-02-11T12:55:20.450Z,49.53
2023-02-11T12:58:44.053Z,51.83
2023-02-11T13:01:52.636Z,47.47
2023-02-11T13:05:03.347Z,41.20
2023-02-11T13:08:15.828Z,49.33
2023-02-11T13:11:25.368Z,48.80
2023-02-11T13:14:35.332Z,44.60
2023-02-11T13:17:50.381Z,44.70
2023-02-11T13:21:03.983Z,47.90
2023-02-11T13:24:23.958Z,45.27
2023-02-11T13:27:39.957Z,47.00
2023-02-11T13:30:47.488Z,43.50
2023-02-11T13:33:54.036Z,43.73
2023-02-11T13:37:00.120Z,44.10
2023-02-11T13:40:22.037Z,45.87
2023-02-11T13:43:30.772Z,43.97
2023-02-11T13:46:55.645Z,47.70
2023-02-11T13:50:04.064Z,43.57
2023-02-11T13:53:09.932Z,46.40
2023-02-11T13:56:33.684Z,42.07
2023-02-11T13:59:48.215Z,46.30
2023-02-11T14:03:43.944Z,46.27
2023-02-11T14:07:39.424Z,45.03
2023-02-11T14:10:53.922Z,44.53
2023-02-11T14:14:30.631Z,42.83
2023-02-11T14:17:36.840Z,46.73
2023-02-11T14:20:44.684Z,42.57
2023-02-11T14:23:53.447Z,46.30
2023-02-11T14:27:02.798Z,45.90
2023-02-11T14:30:43.262Z,49.40
2023-02-11T14:34:31.973Z,48.37
2023-02-11T14:37:50.639Z,46.27
2023-02-11T14:41:03.044Z,49.53
2023-02-11T14:44:16.687Z,48.27
2023-02-11T14:47:30.522Z,49.93
2023-02-11T14:50:43.223Z,46.00
2023-02-11T14:53:52.159Z,49.20
2023-02-11T14:57:09.894Z,50.23
2023-02-11T15:00:19.735Z,47.33
2023-02-11T15:03:29.883Z,47.70
2023-02-11T15:06:39.196Z,46.33
2023-02-11T15:09:48.400Z,46.50
2023-02-11T15:12:54.607Z,53.43
2023-02-11T15:16:05.972Z,50.70
2023-02-11T15:19:24.516Z,47.43
2023-02-11T15:22:36.932Z,46.20
2023-02-11T15:25:52.569Z,45.77
2023-02-11T15:28:59.407Z,48.93
2023-02-11T15:32:14.629Z,50.23
2023-02-11T15:35:22.479Z,49.83
2023-02-11T15:38:29.841Z,52.73
2023-02-11T15:41:38.245Z,53.50
2023-02-11T15:44:44.015Z,52.93
2023-02-11T15:47:52.723Z,52.90
2023-02-11T15:51:03.396Z,47.53
2023-02-11T15:54:18.641Z,53.37
2023-02-11T15:57:24.642Z,57.20
2023-02-11T16:00:35.908Z,50.67
2023-02-11T16:03:43.313Z,47.57
2023-02-11T16:06:51.575Z,51.73
2023-02-11T16:09:59.304Z,55.17
2023-02-11T16:13:20.047Z,48.17
2023-02-11T16:16:28.948Z,52.17
2023-02-11T16:19:36.685Z,48.77
2023-02-11T16:22:47.495Z,51.10
2023-02-11T16:25:59.501Z,54.33
2023-02-11T16:29:14.725Z,49.93
2023-02-11T16:32:22.663Z,48.53
2023-02-11T16:35:28.370Z,50.83
2023-02-11T16:38:35.753Z,47.23
2023-02-11T16:41:42.126Z,49.03
2023-02-11T16:44:51.507Z,51.43
2023-02-11T16:47:57.746Z,55.37
2023-02-11T16:51:04.181Z,49.67
2023-02-11T16:54:16.168Z,49.87
2023-02-11T16:57:24.290Z,52.40
2023-02-11T17:00:30.781Z,49.30
2023-02-11T17:03:40.575Z,55.30
2023-02-11T17:06:48.127Z,55.37
2023-02-11T17:09:55.514Z,57.47
2023-02-11T17:13:01.691Z,56.23
2023-02-11T17:16:11.172Z,48.43
2023-02-11T17:19:20.940Z,50.27
2023-02-11T17:22:26.871Z,52.07
2023-02-11T17:25:34.238Z,56.93
2023-02-11T17:28:40.081Z,52.53
2023-02-11T17:31:46.224Z,51.07
2023-02-11T17:34:54.306Z,54.37
2023-02-11T17:38:01.440Z,51.53
2023-02-11T17:41:08.757Z,53.57
2023-02-11T17:44:16.339Z,53.20
2023-02-11T17:47:22.752Z,56.77
2023-02-11T17:50:29.525Z,56.73
2023-02-11T17:53:35.344Z,54.10
2023-02-11T17:56:43.449Z,53.83
2023-02-11T17:59:49.577Z,55.20
2023-02-11T18:02:57.592Z,52.83
2023-02-11T18:06:04.780Z,54.97
2023-02-11T18:09:11.313Z,56.97
2023-02-11T18:12:25.334Z,53.67
2023-02-11T18:15:30.799Z,55.27
2023-02-11T18:18:36.918Z,55.97
2023-02-11T18:21:43.123Z,58.93
2023-02-11T18:24:53.135Z,55.03
2023-02-11T18:28:00.248Z,51.47
2023-02-11T18:31:07.343Z,54.37
2023-02-11T18:34:14.268Z,60.53
2023-02-11T18:37:20.084Z,54.57
2023-02-11T18:40:25.956Z,54.47
2023-02-11T18:43:34.436Z,57.07
2023-02-11T18:46:40.539Z,60.87
2023-02-11T18:49:46.784Z,49.93
2023-02-11T18:52:52.550Z,49.80
2023-02-11T18:55:58.451Z,52.57
2023-02-11T18:59:05.694Z,56.17
2023-02-11T19:02:12.180Z,51.73
2023-02-11T19:05:18.117Z,52.30
2023-02-11T19:08:23.933Z,54.23
2023-02-11T19:11:50.192Z,59.50
2023-02-11T19:14:59.445Z,59.73
2023-02-11T19:18:05.597Z,54.63
2023-02-11T19:21:13.338Z,57.83
2023-02-11T19:24:20.109Z,54.27
2023-02-11T19:27:26.025Z,52.77
2023-02-11T19:30:33.214Z,55.67
2023-02-11T19:33:39.848Z,52.77
2023-02-11T19:36:45.956Z,52.73
2023-02-11T19:39:51.616Z,55.57
2023-02-11T19:42:57.454Z,58.83
2023-02-11T19:46:05.444Z,59.47
2023-02-11T19:49:15.396Z,58.77
2023-02-11T19:52:21.236Z,49.33
2023-02-11T19:55:26.994Z,58.87
2023-02-11T19:58:33.271Z,62.90
2023-02-11T20:01:40.849Z,59.27
2023-02-11T20:04:47.068Z,54.43
2023-02-11T20:07:52.615Z,55.67
2023-02-11T20:10:58.524Z,58.90
2023-02-11T20:14:05.104Z,50.67
2023-02-11T20:17:12.087Z,56.93
2023-02-11T20:20:18.520Z,59.03
2023-02-11T20:23:24.403Z,58.23
2023-02-11T20:26:31.556Z,58.87
2023-02-11T20:29:37.477Z,62.73
2023-02-11T20:32:44.440Z,68.33
2023-02-11T20:35:56.159Z,68.37
2023-02-11T20:39:02.937Z,65.87
2023-02-11T20:42:11.812Z,60.20
2023-02-11T20:45:17.280Z,57.67
2023-02-11T20:48:24.288Z,57.47
2023-02-11T20:51:32.913Z,58.43
2023-02-11T20:54:38.725Z,61.40
2023-02-11T20:57:44.711Z,63.10
2023-02-11T21:00:50.999Z,53.43
2023-02-11T21:04:00.180Z,53.67
2023-02-11T21:07:05.993Z,59.00
2023-02-11T21:10:12.350Z,56.50
2023-02-11T21:13:18.619Z,59.53
2023-02-11T21:16:24.480Z,61.07
2023-02-11T21:19:32.085Z,53.23
2023-02-11T21:22:37.597Z,61.97
2023-02-11T21:25:43.584Z,62.67
2023-02-11T21:28:50.077Z,61.63
2023-02-11T21:31:56.193Z,58.27
2023-02-11T21:35:03.344Z,56.00
2023-02-11T21:38:08.940Z,53.87
2023-02-11T21:41:14.848Z,54.53
2023-02-11T21:44:21.040Z,56.40
2023-02-11T21:47:26.642Z,53.33
2023-02-11T21:50:34.240Z,57.67
2023-02-11T21:53:39.937Z,83.37
2023-02-11T21:56:46.280Z,65.70
2023-02-11T21:59:52.038Z,66.73
2023-02-11T22:02:58.437Z,63.70
2023-02-11T22:06:09.373Z,55.83
2023-02-11T22:09:15.657Z,58.97
2023-02-11T22:12:21.659Z,50.67
2023-02-11T22:15:27.816Z,53.73
2023-02-11T22:18:33.491Z,60.23
2023-02-11T22:21:40.758Z,60.60
2023-02-11T22:24:47.414Z,55.57
2023-02-11T22:27:53.309Z,56.20
2023-02-11T22:30:59.478Z,57.30
2023-02-11T22:34:06.278Z,58.20
2023-02-11T22:37:13.209Z,51.53
2023-02-11T22:40:19.231Z,49.60
2023-02-11T22:43:25.109Z,49.77
2023-02-11T22:46:31.020Z,56.73
2023-02-11T22:49:37.361Z,52.77
2023-02-11T22:52:44.888Z,50.33
2023-02-11T22:55:51.110Z,49.40
2023-02-11T22:58:58.800Z,42.93
2023-02-11T23:02:04.465Z,56.73
2023-02-11T23:05:10.717Z,50.77
2023-02-11T23:08:18.378Z,51.03
2023-02-11T23:11:26.229Z,48.93
2023-02-11T23:14:31.862Z,49.47
2023-02-11T23:17:37.965Z,45.07
2023-02-11T23:20:44.832Z,48.53
2023-02-11T23:23:56.849Z,51.27
2023-02-11T23:27:02.670Z,46.40
2023-02-11T23:30:09.575Z,55.93
2023-02-11T23:33:15.124Z,43.27
2023-02-11T23:36:22.773Z,46.53
2023-02-11T23:39:29.675Z,40.33
2023-02-11T23:42:35.229Z,38.10
2023-02-11T23:45:40.852Z,32.30
2023-02-11T23:48:46.886Z,33.40
2023-02-11T23:51:52.880Z,28.73
2023-02-11T23:55:00.541Z,34.43
2023-02-11T23:58:06.657Z,33.27
